Time,TemperatureF,DewpointF,PressureIn,WindDirection,WindDirectionDegrees,WindSpeedMPH,WindSpeedGustMPH,Humidity,HourlyPrecipIn,Conditions,Clouds,dailyrainin,SoftwareType,DateUTC
2013-07-20 00:04:00,63.0,51.4,29.84,North,0,0.0,0.0,66,0.00,,,0.00,WUHU216HW,2013-07-20 07:04:00,
2013-07-20 00:09:00,63.0,51.8,29.84,North,0,0.0,0.0,67,0.00,,,0.00,WUHU216HW,2013-07-20 07:09:00,
2013-07-20 00:14:00,62.6,51.5,29.84,North,0,0.0,0.0,67,0.00,,,0.00,WUHU216HW,2013-07-20 07:14:00,
2013-07-20 00:19:00,62.5,51.3,29.84,North,0,0.0,0.0,67,0.00,,,0.00,WUHU216HW,2013-07-20 07:19:00,
2013-07-20 00:24:00,62.5,51.3,29.84,North,0,0.0,0.0,67,0.00,,,0.00,WUHU216HW,2013-07-20 07:24:00,
2013-07-20 00:29:00,62.3,51.2,29.84,North,0,0.0,0.0,67,0.00,,,0.00,WUHU216HW,2013-07-20 07:29:00,
2013-07-20 00:34:00,62.1,51.4,29.83,North,0,0.0,0.0,68,0.00,,,0.00,WUHU216HW,2013-07-20 07:34:00,
2013-07-20 00:39:00,61.9,51.3,29.83,North,0,0.0,0.0,68,0.00,,,0.00,WUHU216HW,2013-07-20 07:39:00,
2013-07-20 00:44:00,61.9,51.3,29.83,North,0,0.0,0.0,68,0.00,,,0.00,WUHU216HW,2013-07-20 07:44:00,
2013-07-20 00:49:00,61.7,51.1,29.83,North,0,0.0,0.0,68,0.00,,,0.00,WUHU216HW,2013-07-20 07:49:00,
2013-07-20 00:55:00,61.6,50.9,29.83,North,0,0.0,0.0,68,0.00,,,0.00,WUHU216HW,2013-07-20 07:55:00,
2013-07-20 01:00:00,61.6,50.9,29.83,North,0,0.0,0.0,68,0.00,,,0.00,WUHU216HW,2013-07-20 08:00:00,
2013-07-20 01:05:00,61.2,51.0,29.83,North,0,0.0,0.0,69,0.00,,,0.00,WUHU216HW,2013-07-20 08:05:00,
2013-07-20 01:10:00,61.2,51.0,29.83,North,0,0.0,0.0,69,0.00,,,0.00,WUHU216HW,2013-07-20 08:10:00,
2013-07-20 01:15:00,61.0,50.5,29.83,North,0,0.0,0.0,68,0.00,,,0.00,WUHU216HW,2013-07-20 08:15:00,
2013-07-20 01:20:00,61.0,50.5,29.83,North,0,0.0,0.0,68,0.00,,,0.00,WUHU216HW,2013-07-20 08:20:00,
2013-07-20 01:25:00,60.8,50.3,29.83,North,0,0.0,0.0,68,0.00,,,0.00,WUHU216HW,2013-07-20 08:25:00,
2013-07-20 01:30:00,60.8,50.7,29.83,North,0,0.0,0.0,69,0.00,,,0.00,WUHU216HW,2013-07-20 08:30:00,
2013-07-20 01:35:00,60.7,50.5,29.83,North,0,0.0,0.0,69,0.00,,,0.00,WUHU216HW,2013-07-20 08:35:00,
2013-07-20 01:40:00,60.7,50.5,29.83,North,0,0.0,0.0,69,0.00,,,0.00,WUHU216HW,2013-07-20 08:40:00,
2013-07-20 01:45:00,60.7,50.9,29.83,North,0,0.0,0.0,70,0.00,,,0.00,WUHU216HW,2013-07-20 08:45:00,
2013-07-20 01:50:00,60.7,51.3,29.83,North,0,0.0,0.0,71,0.00,,,0.00,WUHU216HW,2013-07-20 08:50:00,
2013-07-20 01:55:00,60.7,51.7,29.83,North,0,0.0,0.0,72,0.00,,,0.00,WUHU216HW,2013-07-20 08:55:00,
2013-07-20 02:00:00,60.5,51.5,29.83,North,0,0.0,0.0,72,0.00,,,0.00,WUHU216HW,2013-07-20 09:00:00,
2013-07-20 02:05:00,60.5,51.5,29.83,North,0,0.0,0.0,72,0.00,,,0.00,WUHU216HW,2013-07-20 09:05:00,
2013-07-20 02:11:00,60.5,51.8,29.83,North,0,0.0,0.0,73,0.00,,,0.00,WUHU216HW,2013-07-20 09:11:00,
2013-07-20 02:16:00,60.5,51.8,29.83,North,0,0.0,0.0,73,0.00,,,0.00,WUHU216HW,2013-07-20 09:16:00,
2013-07-20 02:21:00,60.5,51.8,29.82,North,0,0.0,0.0,73,0.00,,,0.00,WUHU216HW,2013-07-20 09:21:00,
2013-07-20 02:26:00,60.7,52.0,29.82,North,0,0.0,0.0,73,0.00,,,0.00,WUHU216HW,2013-07-20 09:26:00,
2013-07-20 02:31:00,60.7,52.0,29.82,North,0,0.0,0.0,73,0.00,,,0.00,WUHU216HW,2013-07-20 09:31:00,
2013-07-20 02:36:00,60.8,52.2,29.82,North,0,0.0,0.0,73,0.00,,,0.00,WUHU216HW,2013-07-20 09:36:00,
2013-07-20 02:41:00,60.8,52.6,29.82,North,0,0.0,0.0,74,0.00,,,0.00,WUHU216HW,2013-07-20 09:41:00,
2013-07-20 02:46:00,60.8,52.6,29.82,North,0,0.0,0.0,74,0.00,,,0.00,WUHU216HW,2013-07-20 09:46:00,
2013-07-20 02:51:00,60.8,52.6,29.82,North,0,0.0,0.0,74,0.00,,,0.00,WUHU216HW,2013-07-20 09:51:00,
2013-07-20 02:56:00,60.8,52.6,29.82,North,0,0.0,0.0,74,0.00,,,0.00,WUHU216HW,2013-07-20 09:56:00,
2013-07-20 03:01:00,60.8,52.6,29.82,North,0,0.0,0.0,74,0.00,,,0.00,WUHU216HW,2013-07-20 10:01:00,
2013-07-20 03:06:00,61.0,53.1,29.82,North,0,0.0,0.0,75,0.00,,,0.00,WUHU216HW,2013-07-20 10:06:00,
2013-07-20 03:11:00,61.0,53.1,29.82,North,0,0.0,0.0,75,0.00,,,0.00,WUHU216HW,2013-07-20 10:11:00,
2013-07-20 03:16:00,61.0,53.1,29.82,North,0,0.0,0.0,75,0.00,,,0.00,WUHU216HW,2013-07-20 10:16:00,
2013-07-20 03:21:00,61.0,53.1,29.81,North,0,0.0,0.0,75,0.00,,,0.00,WUHU216HW,2013-07-20 10:21:00,
2013-07-20 03:27:00,61.2,53.3,29.81,North,0,0.0,0.0,75,0.00,,,0.00,WUHU216HW,2013-07-20 10:27:00,
2013-07-20 03:32:00,61.2,53.3,29.81,North,0,0.0,0.0,75,0.00,,,0.00,WUHU216HW,2013-07-20 10:32:00,
2013-07-20 03:37:00,61.2,53.3,29.82,North,0,0.0,0.0,75,0.00,,,0.00,WUHU216HW,2013-07-20 10:37:00,
2013-07-20 03:42:00,61.2,53.3,29.82,North,0,0.0,0.0,75,0.00,,,0.00,WUHU216HW,2013-07-20 10:42:00,
2013-07-20 03:47:00,61.2,53.3,29.82,North,0,0.0,0.0,75,0.00,,,0.00,WUHU216HW,2013-07-20 10:47:00,
2013-07-20 03:52:00,61.2,53.3,29.82,North,0,0.0,0.0,75,0.00,,,0.00,WUHU216HW,2013-07-20 10:52:00,
2013-07-20 03:57:00,61.2,53.3,29.82,North,0,0.0,0.0,75,0.00,,,0.00,WUHU216HW,2013-07-20 10:57:00,
2013-07-20 04:02:00,61.2,53.3,29.81,North,0,0.0,0.0,75,0.00,,,0.00,WUHU216HW,2013-07-20 11:02:00,
2013-07-20 04:07:00,61.4,53.4,29.81,North,0,0.0,0.0,75,0.00,,,0.00,WUHU216HW,2013-07-20 11:07:00,
2013-07-20 04:12:00,61.4,53.4,29.81,North,0,0.0,0.0,75,0.00,,,0.00,WUHU216HW,2013-07-20 11:12:00,
2013-07-20 04:17:00,61.4,53.4,29.81,North,0,0.0,0.0,75,0.00,,,0.00,WUHU216HW,2013-07-20 11:17:00,
2013-07-20 04:22:00,61.4,53.4,29.81,North,0,0.0,0.0,75,0.00,,,0.00,WUHU216HW,2013-07-20 11:22:00,
2013-07-20 04:27:00,61.4,53.4,29.81,North,0,0.0,0.0,75,0.00,,,0.00,WUHU216HW,2013-07-20 11:27:00,
2013-07-20 04:32:00,61.4,53.4,29.81,North,0,0.0,0.0,75,0.00,,,0.00,WUHU216HW,2013-07-20 11:32:00,
2013-07-20 04:37:00,61.4,53.4,29.81,North,0,0.0,0.0,75,0.00,,,0.00,WUHU216HW,2013-07-20 11:37:00,
2013-07-20 04:42:00,61.4,53.4,29.81,North,0,0.0,0.0,75,0.00,,,0.00,WUHU216HW,2013-07-20 11:42:00,
2013-07-20 04:48:00,61.4,53.4,29.81,North,0,0.0,0.0,75,0.00,,,0.00,WUHU216HW,2013-07-20 11:48:00,
2013-07-20 04:53:00,61.4,53.4,29.81,North,0,0.0,0.0,75,0.00,,,0.00,WUHU216HW,2013-07-20 11:53:00,
2013-07-20 04:58:00,61.4,53.4,29.81,North,0,0.0,0.0,75,0.00,,,0.00,WUHU216HW,2013-07-20 11:58:00,
2013-07-20 05:03:00,61.4,53.4,29.81,North,0,0.0,0.0,75,0.00,,,0.00,WUHU216HW,2013-07-20 12:03:00,
2013-07-20 05:08:00,61.4,53.4,29.81,North,0,0.0,0.0,75,0.00,,,0.00,WUHU216HW,2013-07-20 12:08:00,
2013-07-20 05:13:00,61.4,53.4,29.81,North,0,0.0,0.0,75,0.00,,,0.00,WUHU216HW,2013-07-20 12:13:00,
2013-07-20 05:18:00,61.4,53.4,29.80,North,0,0.0,0.0,75,0.00,,,0.00,WUHU216HW,2013-07-20 12:18:00,
2013-07-20 05:23:00,61.4,53.4,29.80,North,0,0.0,0.0,75,0.00,,,0.00,WUHU216HW,2013-07-20 12:23:00,
2013-07-20 05:28:00,61.4,53.4,29.81,North,0,0.0,0.0,75,0.00,,,0.00,WUHU216HW,2013-07-20 12:28:00,
2013-07-20 05:33:00,61.2,53.3,29.80,North,0,0.0,0.0,75,0.00,,,0.00,WUHU216HW,2013-07-20 12:33:00,
2013-07-20 05:38:00,61.2,53.3,29.80,North,0,0.0,0.0,75,0.00,,,0.00,WUHU216HW,2013-07-20 12:38:00,
2013-07-20 05:43:00,61.2,53.3,29.81,North,0,0.0,0.0,75,0.00,,,0.00,WUHU216HW,2013-07-20 12:43:00,
2013-07-20 05:48:00,61.2,53.3,29.80,North,0,0.0,0.0,75,0.00,,,0.00,WUHU216HW,2013-07-20 12:48:00,
2013-07-20 05:53:00,61.2,53.3,29.80,North,0,0.0,0.0,75,0.00,,,0.00,WUHU216HW,2013-07-20 12:53:00,
2013-07-20 05:58:00,61.0,53.1,29.80,North,0,0.0,0.0,75,0.00,,,0.00,WUHU216HW,2013-07-20 12:58:00,
2013-07-20 06:04:00,61.0,53.1,29.80,North,0,0.0,0.0,75,0.00,,,0.00,WUHU216HW,2013-07-20 13:04:00,
2013-07-20 06:09:00,61.0,53.1,29.80,North,0,0.0,0.0,75,0.00,,,0.00,WUHU216HW,2013-07-20 13:09:00,
2013-07-20 06:14:00,60.8,52.9,29.80,North,0,0.0,0.0,75,0.00,,,0.00,WUHU216HW,2013-07-20 13:14:00,
2013-07-20 06:19:00,60.8,52.9,29.81,North,0,0.0,0.0,75,0.00,,,0.00,WUHU216HW,2013-07-20 13:19:00,
2013-07-20 06:24:00,60.8,52.9,29.81,North,0,0.0,0.0,75,0.00,,,0.00,WUHU216HW,2013-07-20 13:24:00,
2013-07-20 06:29:00,60.8,52.9,29.81,North,0,0.0,0.0,75,0.00,,,0.00,WUHU216HW,2013-07-20 13:29:00,
2013-07-20 06:34:00,60.8,52.9,29.81,North,0,0.0,0.0,75,0.00,,,0.00,WUHU216HW,2013-07-20 13:34:00,
2013-07-20 06:39:00,60.8,52.9,29.81,North,0,0.0,0.0,75,0.00,,,0.00,WUHU216HW,2013-07-20 13:39:00,
2013-07-20 06:44:00,60.8,52.9,29.81,North,0,0.0,0.0,75,0.00,,,0.00,WUHU216HW,2013-07-20 13:44:00,
2013-07-20 06:49:00,60.8,52.9,29.81,North,0,0.0,0.0,75,0.00,,,0.00,WUHU216HW,2013-07-20 13:49:00,
2013-07-20 06:54:00,61.0,53.1,29.81,North,0,0.0,0.0,75,0.00,,,0.00,WUHU216HW,2013-07-20 13:54:00,
2013-07-20 06:59:00,60.8,52.9,29.81,North,0,0.0,0.0,75,0.00,,,0.00,WUHU216HW,2013-07-20 13:59:00,
2013-07-20 07:04:00,60.8,52.9,29.81,North,0,0.0,0.0,75,0.00,,,0.00,WUHU216HW,2013-07-20 14:04:00,
2013-07-20 07:10:00,60.8,52.9,29.81,North,0,0.0,0.0,75,0.00,,,0.00,WUHU216HW,2013-07-20 14:10:00,
2013-07-20 07:15:00,60.8,53.3,29.81,North,0,0.0,0.0,76,0.00,,,0.00,WUHU216HW,2013-07-20 14:15:00,
2013-07-20 07:20:00,60.8,53.3,29.81,North,0,0.0,0.0,76,0.00,,,0.00,WUHU216HW,2013-07-20 14:20:00,
2013-07-20 07:25:00,61.0,53.5,29.81,North,0,0.0,0.0,76,0.00,,,0.00,WUHU216HW,2013-07-20 14:25:00,
2013-07-20 07:30:00,61.0,53.5,29.81,North,0,0.0,0.0,76,0.00,,,0.00,WUHU216HW,2013-07-20 14:30:00,
2013-07-20 07:35:00,61.0,53.5,29.81,North,0,0.0,0.0,76,0.00,,,0.00,WUHU216HW,2013-07-20 14:35:00,
2013-07-20 07:40:00,61.0,53.5,29.81,North,0,0.0,0.0,76,0.00,,,0.00,WUHU216HW,2013-07-20 14:40:00,
2013-07-20 07:45:00,61.2,53.7,29.81,North,0,0.0,0.0,76,0.00,,,0.00,WUHU216HW,2013-07-20 14:45:00,
2013-07-20 07:50:00,61.4,53.7,29.82,North,0,0.0,0.0,76,0.00,,,0.00,WUHU216HW,2013-07-20 14:50:00,
2013-07-20 07:55:00,61.2,54.0,29.82,North,0,0.0,0.0,77,0.00,,,0.00,WUHU216HW,2013-07-20 14:55:00,
2013-07-20 08:00:00,61.2,54.0,29.81,North,0,0.0,0.0,77,0.00,,,0.00,WUHU216HW,2013-07-20 15:00:00,
2013-07-20 08:05:00,61.4,54.1,29.82,North,0,0.0,0.0,77,0.00,,,0.00,WUHU216HW,2013-07-20 15:05:00,
2013-07-20 08:10:00,61.4,54.1,29.81,North,0,0.0,0.0,77,0.00,,,0.00,WUHU216HW,2013-07-20 15:10:00,
2013-07-20 08:15:00,61.4,54.1,29.81,North,0,0.0,0.0,77,0.00,,,0.00,WUHU216HW,2013-07-20 15:15:00,
2013-07-20 08:20:00,61.6,54.3,29.82,North,0,0.0,0.0,77,0.00,,,0.00,WUHU216HW,2013-07-20 15:20:00,
2013-07-20 08:26:00,61.6,54.3,29.82,North,0,0.0,0.0,77,0.00,,,0.00,WUHU216HW,2013-07-20 15:26:00,
2013-07-20 08:31:00,61.7,54.5,29.82,North,0,0.0,0.0,77,0.00,,,0.00,WUHU216HW,2013-07-20 15:31:00,
2013-07-20 08:36:00,61.9,54.6,29.82,North,0,0.0,0.0,77,0.00,,,0.00,WUHU216HW,2013-07-20 15:36:00,
2013-07-20 08:41:00,62.1,54.8,29.81,North,0,0.0,0.0,77,0.00,,,0.00,WUHU216HW,2013-07-20 15:41:00,
2013-07-20 08:46:00,62.3,54.9,29.81,North,0,0.0,0.0,77,0.00,,,0.00,WUHU216HW,2013-07-20 15:46:00,
2013-07-20 08:51:00,62.5,55.1,29.81,North,0,0.0,0.0,77,0.00,,,0.00,WUHU216HW,2013-07-20 15:51:00,
2013-07-20 08:56:00,62.6,55.3,29.82,North,0,0.0,0.0,77,0.00,,,0.00,WUHU216HW,2013-07-20 15:56:00,
2013-07-20 09:01:00,62.8,55.4,29.82,North,0,0.0,0.0,77,0.00,,,0.00,WUHU216HW,2013-07-20 16:01:00,
2013-07-20 09:06:00,63.2,55.4,29.82,North,0,0.0,0.0,76,0.00,,,0.00,WUHU216HW,2013-07-20 16:06:00,
2013-07-20 09:11:00,63.5,56.2,29.82,North,0,0.0,0.0,77,0.00,,,0.00,WUHU216HW,2013-07-20 16:11:00,
2013-07-20 09:16:00,63.9,56.5,29.81,North,0,0.0,0.0,77,0.00,,,0.00,WUHU216HW,2013-07-20 16:16:00,
2013-07-20 09:21:00,64.3,56.9,29.81,North,0,0.0,0.0,77,0.00,,,0.00,WUHU216HW,2013-07-20 16:21:00,
2013-07-20 09:26:00,65.0,57.6,29.81,North,0,0.0,0.0,77,0.00,,,0.00,WUHU216HW,2013-07-20 16:26:00,
2013-07-20 09:31:00,65.7,57.5,29.81,North,0,0.0,0.0,75,0.00,,,0.00,WUHU216HW,2013-07-20 16:31:00,
2013-07-20 09:36:00,66.1,57.5,29.81,North,0,0.0,0.0,74,0.00,,,0.00,WUHU216HW,2013-07-20 16:36:00,
2013-07-20 09:42:00,66.6,58.1,29.81,North,0,0.0,0.0,74,0.00,,,0.00,WUHU216HW,2013-07-20 16:42:00,
2013-07-20 09:47:00,67.7,58.8,29.81,North,0,0.0,0.0,73,0.00,,,0.00,WUHU216HW,2013-07-20 16:47:00,
2013-07-20 09:52:00,68.8,59.4,29.81,North,0,0.0,0.0,72,0.00,,,0.00,WUHU216HW,2013-07-20 16:52:00,
2013-07-20 09:57:00,69.5,59.2,29.81,North,0,0.0,0.0,70,0.00,,,0.00,WUHU216HW,2013-07-20 16:57:00,
2013-07-20 10:02:00,70.2,59.1,29.81,North,0,0.0,0.0,68,0.00,,,0.00,WUHU216HW,2013-07-20 17:02:00,
2013-07-20 10:07:00,70.7,59.2,29.81,North,0,0.0,0.0,67,0.00,,,0.00,WUHU216HW,2013-07-20 17:07:00,
2013-07-20 10:12:00,71.1,59.1,29.81,North,0,0.0,0.0,66,0.00,,,0.00,WUHU216HW,2013-07-20 17:12:00,
2013-07-20 10:17:00,71.3,59.3,29.81,North,0,0.0,0.0,66,0.00,,,0.00,WUHU216HW,2013-07-20 17:17:00,
2013-07-20 10:22:00,71.6,59.7,29.81,North,0,0.0,0.0,66,0.00,,,0.00,WUHU216HW,2013-07-20 17:22:00,
2013-07-20 10:27:00,71.5,59.5,29.81,North,0,0.0,0.0,66,0.00,,,0.00,WUHU216HW,2013-07-20 17:27:00,
2013-07-20 10:32:00,71.6,59.7,29.81,North,0,0.0,0.0,66,0.00,,,0.00,WUHU216HW,2013-07-20 17:32:00,
2013-07-20 10:37:00,71.6,59.7,29.81,North,0,0.0,0.0,66,0.00,,,0.00,WUHU216HW,2013-07-20 17:37:00,
2013-07-20 10:42:00,71.6,59.7,29.80,North,0,0.0,0.0,66,0.00,,,0.00,WUHU216HW,2013-07-20 17:42:00,
2013-07-20 10:47:00,71.5,59.5,29.80,North,0,0.0,0.0,66,0.00,,,0.00,WUHU216HW,2013-07-20 17:47:00,
2013-07-20 10:52:00,71.1,58.7,29.80,North,0,0.0,0.0,65,0.00,,,0.00,WUHU216HW,2013-07-20 17:52:00,
2013-07-20 10:58:00,70.9,58.5,29.80,North,0,0.0,0.0,65,0.00,,,0.00,WUHU216HW,2013-07-20 17:58:00,
2013-07-20 11:03:00,70.9,58.5,29.80,North,0,0.0,0.0,65,0.00,,,0.00,WUHU216HW,2013-07-20 18:03:00,
2013-07-20 11:08:00,70.9,58.5,29.80,North,0,0.0,0.0,65,0.00,,,0.00,WUHU216HW,2013-07-20 18:08:00,
2013-07-20 11:13:00,70.9,58.5,29.80,North,0,0.0,0.0,65,0.00,,,0.00,WUHU216HW,2013-07-20 18:13:00,
2013-07-20 11:18:00,70.9,58.5,29.80,North,0,0.0,0.0,65,0.00,,,0.00,WUHU216HW,2013-07-20 18:18:00,
2013-07-20 11:23:00,70.9,58.5,29.80,North,0,0.0,0.0,65,0.00,,,0.00,WUHU216HW,2013-07-20 18:23:00,
2013-07-20 11:28:00,71.1,58.7,29.80,North,0,0.0,0.0,65,0.00,,,0.00,WUHU216HW,2013-07-20 18:28:00,
2013-07-20 11:33:00,71.1,58.7,29.79,North,0,0.0,0.0,65,0.00,,,0.00,WUHU216HW,2013-07-20 18:33:00,
2013-07-20 11:38:00,71.1,58.7,29.79,North,0,0.0,0.0,65,0.00,,,0.00,WUHU216HW,2013-07-20 18:38:00,
2013-07-20 11:43:00,71.1,58.7,29.79,North,0,0.0,0.0,65,0.00,,,0.00,WUHU216HW,2013-07-20 18:43:00,
2013-07-20 11:48:00,71.1,58.7,29.79,North,0,0.0,0.0,65,0.00,,,0.00,WUHU216HW,2013-07-20 18:48:00,
2013-07-20 11:53:00,71.1,58.7,29.79,North,0,0.0,0.0,65,0.00,,,0.00,WUHU216HW,2013-07-20 18:53:00,
2013-07-20 11:58:00,71.3,58.4,29.79,North,0,0.0,0.0,64,0.00,,,0.00,WUHU216HW,2013-07-20 18:58:00,
2013-07-20 12:04:00,71.3,58.4,29.79,North,0,0.0,0.0,64,0.00,,,0.00,WUHU216HW,2013-07-20 19:04:00,
2013-07-20 12:09:00,71.5,59.0,29.79,North,0,0.0,0.0,65,0.00,,,0.00,WUHU216HW,2013-07-20 19:09:00,
2013-07-20 12:14:00,71.5,58.6,29.78,North,0,0.0,0.0,64,0.00,,,0.00,WUHU216HW,2013-07-20 19:14:00,
2013-07-20 12:19:00,71.6,58.8,29.78,North,0,0.0,0.0,64,0.00,,,0.00,WUHU216HW,2013-07-20 19:19:00,
2013-07-20 12:24:00,71.6,58.8,29.78,North,0,0.0,0.0,64,0.00,,,0.00,WUHU216HW,2013-07-20 19:24:00,
2013-07-20 12:29:00,71.6,58.8,29.78,North,0,0.0,0.0,64,0.00,,,0.00,WUHU216HW,2013-07-20 19:29:00,
2013-07-20 12:34:00,71.6,58.8,29.78,North,0,0.0,0.0,64,0.00,,,0.00,WUHU216HW,2013-07-20 19:34:00,
2013-07-20 12:39:00,71.6,58.8,29.78,North,0,0.0,0.0,64,0.00,,,0.00,WUHU216HW,2013-07-20 19:39:00,
2013-07-20 12:44:00,71.6,58.8,29.78,North,0,0.0,0.0,64,0.00,,,0.00,WUHU216HW,2013-07-20 19:44:00,
2013-07-20 12:49:00,71.8,58.5,29.78,North,0,0.0,0.0,63,0.00,,,0.00,WUHU216HW,2013-07-20 19:49:00,
2013-07-20 12:54:00,71.6,58.8,29.77,North,0,0.0,0.0,64,0.00,,,0.00,WUHU216HW,2013-07-20 19:54:00,
2013-07-20 13:00:00,71.6,58.8,29.77,North,0,0.0,0.0,64,0.00,,,0.00,WUHU216HW,2013-07-20 20:00:00,
2013-07-20 13:05:00,71.6,58.8,29.77,North,0,0.0,0.0,64,0.00,,,0.00,WUHU216HW,2013-07-20 20:05:00,
2013-07-20 13:10:00,71.8,59.0,29.77,North,0,0.0,0.0,64,0.00,,,0.00,WUHU216HW,2013-07-20 20:10:00,
2013-07-20 13:15:00,71.8,59.0,29.76,North,0,0.0,0.0,64,0.00,,,0.00,WUHU216HW,2013-07-20 20:15:00,
2013-07-20 13:20:00,71.8,59.0,29.76,North,0,0.0,0.0,64,0.00,,,0.00,WUHU216HW,2013-07-20 20:20:00,
2013-07-20 13:25:00,72.0,59.1,29.76,North,0,0.0,0.0,64,0.00,,,0.00,WUHU216HW,2013-07-20 20:25:00,
2013-07-20 13:31:00,72.0,59.1,29.76,North,0,0.0,0.0,64,0.00,,,0.00,WUHU216HW,2013-07-20 20:31:00,
2013-07-20 13:36:00,72.4,59.1,29.76,North,0,0.0,0.0,63,0.00,,,0.00,WUHU216HW,2013-07-20 20:36:00,
2013-07-20 13:41:00,72.4,59.1,29.76,North,0,0.0,0.0,63,0.00,,,0.00,WUHU216HW,2013-07-20 20:41:00,
2013-07-20 13:46:00,72.4,59.1,29.76,North,0,0.0,0.0,63,0.00,,,0.00,WUHU216HW,2013-07-20 20:46:00,
2013-07-20 13:51:00,72.5,59.2,29.76,North,0,0.0,0.0,63,0.00,,,0.00,WUHU216HW,2013-07-20 20:51:00,
2013-07-20 13:56:00,72.7,59.0,29.76,North,0,0.0,0.0,62,0.00,,,0.00,WUHU216HW,2013-07-20 20:56:00,
2013-07-20 14:02:00,72.7,59.0,29.76,North,0,0.0,0.0,62,0.00,,,0.00,WUHU216HW,2013-07-20 21:02:00,
2013-07-20 14:07:00,72.9,59.0,29.75,North,0,0.0,0.0,62,0.00,,,0.00,WUHU216HW,2013-07-20 21:07:00,
2013-07-20 14:12:00,73.1,59.2,29.75,North,0,0.0,0.0,62,0.00,,,0.00,WUHU216HW,2013-07-20 21:12:00,
2013-07-20 14:17:00,73.1,59.2,29.75,North,0,0.0,0.0,62,0.00,,,0.00,WUHU216HW,2013-07-20 21:17:00,
2013-07-20 14:22:00,73.3,59.4,29.75,North,0,0.0,0.0,62,0.00,,,0.00,WUHU216HW,2013-07-20 21:22:00,
2013-07-20 14:27:00,73.4,59.6,29.75,North,0,0.0,0.0,62,0.00,,,0.00,WUHU216HW,2013-07-20 21:27:00,
2013-07-20 14:32:00,73.6,59.8,29.75,North,0,0.0,0.0,62,0.00,,,0.00,WUHU216HW,2013-07-20 21:32:00,
2013-07-20 14:37:00,73.8,60.0,29.75,North,0,0.0,0.0,62,0.00,,,0.00,WUHU216HW,2013-07-20 21:37:00,
2013-07-20 14:43:00,74.0,60.1,29.75,North,0,0.0,0.0,62,0.00,,,0.00,WUHU216HW,2013-07-20 21:43:00,
2013-07-20 14:48:00,74.2,59.9,29.74,North,0,0.0,0.0,61,0.00,,,0.00,WUHU216HW,2013-07-20 21:48:00,
2013-07-20 14:53:00,74.2,59.9,29.74,North,0,0.0,0.0,61,0.00,,,0.00,WUHU216HW,2013-07-20 21:53:00,
2013-07-20 14:58:00,74.3,60.0,29.74,North,0,0.0,0.0,61,0.00,,,0.00,WUHU216HW,2013-07-20 21:58:00,
2013-07-20 15:03:00,74.5,59.8,29.74,North,0,0.0,0.0,60,0.00,,,0.00,WUHU216HW,2013-07-20 22:03:00,
2013-07-20 15:08:00,74.7,59.9,29.73,North,0,0.0,0.0,60,0.00,,,0.00,WUHU216HW,2013-07-20 22:08:00,
2013-07-20 15:13:00,75.1,59.8,29.73,North,0,0.0,0.0,59,0.00,,,0.00,WUHU216HW,2013-07-20 22:13:00,
2013-07-20 15:18:00,75.2,59.5,29.73,North,0,0.0,0.0,58,0.00,,,0.00,WUHU216HW,2013-07-20 22:18:00,
2013-07-20 15:23:00,75.6,59.8,29.73,North,0,0.0,0.0,58,0.00,,,0.00,WUHU216HW,2013-07-20 22:23:00,
2013-07-20 15:28:00,75.8,59.9,29.73,North,0,0.0,0.0,58,0.00,,,0.00,WUHU216HW,2013-07-20 22:28:00,
2013-07-20 15:33:00,75.8,59.9,29.73,North,0,0.0,0.0,58,0.00,,,0.00,WUHU216HW,2013-07-20 22:33:00,
2013-07-20 15:39:00,76.0,59.6,29.73,North,0,0.0,0.0,57,0.00,,,0.00,WUHU216HW,2013-07-20 22:39:00,
2013-07-20 15:44:00,76.1,59.8,29.73,North,0,0.0,0.0,57,0.00,,,0.00,WUHU216HW,2013-07-20 22:44:00,
2013-07-20 15:49:00,76.1,59.8,29.73,North,0,0.0,0.0,57,0.00,,,0.00,WUHU216HW,2013-07-20 22:49:00,
2013-07-20 15:54:00,76.3,59.9,29.73,North,0,0.0,0.0,57,0.00,,,0.00,WUHU216HW,2013-07-20 22:54:00,
2013-07-20 15:59:00,76.5,60.1,29.73,North,0,0.0,0.0,57,0.00,,,0.00,WUHU216HW,2013-07-20 22:59:00,
2013-07-20 16:04:00,76.5,59.6,29.73,North,0,0.0,0.0,56,0.00,,,0.00,WUHU216HW,2013-07-20 23:04:00,
2013-07-20 16:09:00,76.5,60.1,29.72,North,0,0.0,0.0,57,0.00,,,0.00,WUHU216HW,2013-07-20 23:09:00,
2013-07-20 16:14:00,76.7,60.3,29.72,North,0,0.0,0.0,57,0.00,,,0.00,WUHU216HW,2013-07-20 23:14:00,
2013-07-20 16:19:00,76.7,59.8,29.72,North,0,0.0,0.0,56,0.00,,,0.00,WUHU216HW,2013-07-20 23:19:00,
2013-07-20 16:25:00,76.7,59.8,29.72,North,0,0.0,0.0,56,0.00,,,0.00,WUHU216HW,2013-07-20 23:25:00,
2013-07-20 16:30:00,76.7,59.8,29.71,North,0,0.0,0.0,56,0.00,,,0.00,WUHU216HW,2013-07-20 23:30:00,
2013-07-20 16:35:00,76.7,59.8,29.71,North,0,0.0,0.0,56,0.00,,,0.00,WUHU216HW,2013-07-20 23:35:00,
2013-07-20 16:40:00,76.7,59.8,29.71,North,0,0.0,0.0,56,0.00,,,0.00,WUHU216HW,2013-07-20 23:40:00,
2013-07-20 16:46:00,76.7,59.8,29.71,North,0,0.0,0.0,56,0.00,,,0.00,WUHU216HW,2013-07-20 23:46:00,
2013-07-20 16:51:00,76.7,59.8,29.71,North,0,0.0,0.0,56,0.00,,,0.00,WUHU216HW,2013-07-20 23:51:00,
2013-07-20 16:56:00,76.5,59.6,29.71,North,0,0.0,0.0,56,0.00,,,0.00,WUHU216HW,2013-07-20 23:56:00,
2013-07-20 17:01:00,76.5,59.6,29.71,North,0,0.0,0.0,56,0.00,,,0.00,WUHU216HW,2013-07-21 00:01:00,
2013-07-20 17:06:00,76.3,59.9,29.71,North,0,0.0,0.0,57,0.00,,,0.00,WUHU216HW,2013-07-21 00:06:00,
2013-07-20 17:11:00,76.3,59.4,29.71,North,0,0.0,0.0,56,0.00,,,0.00,WUHU216HW,2013-07-21 00:11:00,
2013-07-20 17:17:00,76.3,59.9,29.71,North,0,0.0,0.0,57,0.00,,,0.00,WUHU216HW,2013-07-21 00:17:00,
2013-07-20 17:22:00,76.3,59.4,29.71,North,0,0.0,0.0,56,0.00,,,0.00,WUHU216HW,2013-07-21 00:22:00,
2013-07-20 17:27:00,76.3,59.0,29.71,North,0,0.0,0.0,55,0.00,,,0.00,WUHU216HW,2013-07-21 00:27:00,
2013-07-20 17:32:00,76.3,59.0,29.71,North,0,0.0,0.0,55,0.00,,,0.00,WUHU216HW,2013-07-21 00:32:00,
2013-07-20 17:37:00,76.1,58.8,29.71,North,0,0.0,0.0,55,0.00,,,0.00,WUHU216HW,2013-07-21 00:37:00,
2013-07-20 17:42:00,76.0,58.6,29.71,North,0,0.0,0.0,55,0.00,,,0.00,WUHU216HW,2013-07-21 00:42:00,
2013-07-20 17:47:00,76.0,58.6,29.71,North,0,0.0,0.0,55,0.00,,,0.00,WUHU216HW,2013-07-21 00:47:00,
2013-07-20 17:53:00,75.8,58.4,29.70,North,0,0.0,0.0,55,0.00,,,0.00,WUHU216HW,2013-07-21 00:53:00,
2013-07-20 17:58:00,75.6,58.3,29.70,North,0,0.0,0.0,55,0.00,,,0.00,WUHU216HW,2013-07-21 00:58:00,
2013-07-20 18:03:00,75.4,58.2,29.70,North,0,0.0,0.0,55,0.00,,,0.00,WUHU216HW,2013-07-21 01:03:00,
2013-07-20 18:08:00,75.2,58.0,29.70,North,0,0.0,0.0,55,0.00,,,0.00,WUHU216HW,2013-07-21 01:08:00,
2013-07-20 18:14:00,75.1,57.8,29.70,North,0,0.0,0.0,55,0.00,,,0.00,WUHU216HW,2013-07-21 01:14:00,
2013-07-20 18:19:00,74.9,57.6,29.70,North,0,0.0,0.0,55,0.00,,,0.00,WUHU216HW,2013-07-21 01:19:00,
2013-07-20 18:24:00,74.7,57.4,29.70,North,0,0.0,0.0,55,0.00,,,0.00,WUHU216HW,2013-07-21 01:24:00,
2013-07-20 18:29:00,74.3,57.6,29.70,North,0,0.0,0.0,56,0.00,,,0.00,WUHU216HW,2013-07-21 01:29:00,
2013-07-20 18:34:00,74.2,57.4,29.70,North,0,0.0,0.0,56,0.00,,,0.00,WUHU216HW,2013-07-21 01:34:00,
2013-07-20 18:40:00,73.8,57.1,29.70,North,0,0.0,0.0,56,0.00,,,0.00,WUHU216HW,2013-07-21 01:40:00,
2013-07-20 18:45:00,73.6,56.9,29.70,North,0,0.0,0.0,56,0.00,,,0.00,WUHU216HW,2013-07-21 01:45:00,
2013-07-20 18:50:00,73.4,57.2,29.70,North,0,0.0,0.0,57,0.00,,,0.00,WUHU216HW,2013-07-21 01:50:00,
2013-07-20 18:55:00,73.3,57.0,29.71,North,0,0.0,0.0,57,0.00,,,0.00,WUHU216HW,2013-07-21 01:55:00,
2013-07-20 19:00:00,72.9,56.7,29.71,North,0,0.0,0.0,57,0.00,,,0.00,WUHU216HW,2013-07-21 02:00:00,
2013-07-20 19:05:00,72.7,56.5,29.71,North,0,0.0,0.0,57,0.00,,,0.00,WUHU216HW,2013-07-21 02:05:00,
2013-07-20 19:11:00,72.5,56.3,29.72,North,0,0.0,0.0,57,0.00,,,0.00,WUHU216HW,2013-07-21 02:11:00,
2013-07-20 19:16:00,72.4,56.7,29.72,North,0,0.0,0.0,58,0.00,,,0.00,WUHU216HW,2013-07-21 02:16:00,
2013-07-20 19:21:00,72.0,56.3,29.72,North,0,0.0,0.0,58,0.00,,,0.00,WUHU216HW,2013-07-21 02:21:00,
2013-07-20 19:26:00,71.8,56.3,29.72,North,0,0.0,0.0,58,0.00,,,0.00,WUHU216HW,2013-07-21 02:26:00,
2013-07-20 19:31:00,71.6,56.5,29.72,North,0,0.0,0.0,59,0.00,,,0.00,WUHU216HW,2013-07-21 02:31:00,
2013-07-20 19:36:00,71.6,56.5,29.73,North,0,0.0,0.0,59,0.00,,,0.00,WUHU216HW,2013-07-21 02:36:00,
2013-07-20 19:42:00,71.3,56.3,29.72,North,0,0.0,0.0,59,0.00,,,0.00,WUHU216HW,2013-07-21 02:42:00,
2013-07-20 19:47:00,71.1,56.1,29.73,North,0,0.0,0.0,59,0.00,,,0.00,WUHU216HW,2013-07-21 02:47:00,
2013-07-20 19:52:00,71.1,56.6,29.73,North,0,0.0,0.0,60,0.00,,,0.00,WUHU216HW,2013-07-21 02:52:00,
2013-07-20 19:57:00,70.9,55.9,29.73,North,0,0.0,0.0,59,0.00,,,0.00,WUHU216HW,2013-07-21 02:57:00,
2013-07-20 20:02:00,70.9,55.9,29.73,North,0,0.0,0.0,59,0.00,,,0.00,WUHU216HW,2013-07-21 03:02:00,
2013-07-20 20:07:00,70.6,55.6,29.73,North,0,0.0,0.0,59,0.00,,,0.00,WUHU216HW,2013-07-21 03:07:00,
2013-07-20 20:12:00,70.6,56.1,29.73,North,0,0.0,0.0,60,0.00,,,0.00,WUHU216HW,2013-07-21 03:12:00,
2013-07-20 20:17:00,70.4,55.9,29.73,North,0,0.0,0.0,60,0.00,,,0.00,WUHU216HW,2013-07-21 03:17:00,
2013-07-20 20:23:00,70.4,55.9,29.74,North,0,0.0,0.0,60,0.00,,,0.00,WUHU216HW,2013-07-21 03:23:00,
2013-07-20 20:28:00,70.2,55.8,29.74,North,0,0.0,0.0,60,0.00,,,0.00,WUHU216HW,2013-07-21 03:28:00,
2013-07-20 20:33:00,70.0,55.6,29.74,North,0,0.0,0.0,60,0.00,,,0.00,WUHU216HW,2013-07-21 03:33:00,
2013-07-20 20:38:00,69.7,55.3,29.74,North,0,0.0,0.0,60,0.00,,,0.00,WUHU216HW,2013-07-21 03:38:00,
2013-07-20 20:44:00,69.5,55.1,29.75,North,0,0.0,0.0,60,0.00,,,0.00,WUHU216HW,2013-07-21 03:44:00,
2013-07-20 20:49:00,69.1,55.2,29.75,North,0,0.0,0.0,61,0.00,,,0.00,WUHU216HW,2013-07-21 03:49:00,
2013-07-20 20:54:00,68.8,54.8,29.75,North,0,0.0,0.0,61,0.00,,,0.00,WUHU216HW,2013-07-21 03:54:00,
2013-07-20 20:59:00,68.8,54.8,29.75,North,0,0.0,0.0,61,0.00,,,0.00,WUHU216HW,2013-07-21 03:59:00,
2013-07-20 21:01:00,68.6,54.6,29.75,North,0,0.0,0.0,61,0.00,,,0.00,WUHU216HW,2013-07-21 04:01:00,
2013-07-20 21:02:00,68.6,54.6,29.75,North,0,0.0,0.0,61,0.00,,,0.00,WUHU216HW,2013-07-21 04:02:00,
2013-07-20 21:07:00,68.6,54.6,29.75,North,0,0.0,0.0,61,0.00,,,0.00,WUHU216HW,2013-07-21 04:07:00,
2013-07-20 21:12:00,68.4,54.5,29.75,North,0,0.0,0.0,61,0.00,,,0.00,WUHU216HW,2013-07-21 04:12:00,
2013-07-20 21:17:00,68.2,54.3,29.75,North,0,0.0,0.0,61,0.00,,,0.00,WUHU216HW,2013-07-21 04:17:00,
2013-07-20 21:22:00,68.0,54.1,29.76,North,0,0.0,0.0,61,0.00,,,0.00,WUHU216HW,2013-07-21 04:22:00,
2013-07-20 21:27:00,68.0,54.6,29.76,North,0,0.0,0.0,62,0.00,,,0.00,WUHU216HW,2013-07-21 04:27:00,
2013-07-20 21:32:00,67.9,54.4,29.76,North,0,0.0,0.0,62,0.00,,,0.00,WUHU216HW,2013-07-21 04:32:00,
2013-07-20 21:37:00,67.7,54.2,29.75,North,0,0.0,0.0,62,0.00,,,0.00,WUHU216HW,2013-07-21 04:37:00,
2013-07-20 21:43:00,67.5,54.0,29.76,North,0,0.0,0.0,62,0.00,,,0.00,WUHU216HW,2013-07-21 04:43:00,
2013-07-20 21:48:00,67.3,53.8,29.76,North,0,0.0,0.0,62,0.00,,,0.00,WUHU216HW,2013-07-21 04:48:00,
2013-07-20 21:53:00,67.3,53.8,29.77,North,0,0.0,0.0,62,0.00,,,0.00,WUHU216HW,2013-07-21 04:53:00,
2013-07-20 21:58:00,67.1,53.6,29.77,North,0,0.0,0.0,62,0.00,,,0.00,WUHU216HW,2013-07-21 04:58:00,
2013-07-20 22:03:00,67.0,53.6,29.77,North,0,0.0,0.0,62,0.00,,,0.00,WUHU216HW,2013-07-21 05:03:00,
2013-07-20 22:08:00,66.8,53.7,29.77,North,0,0.0,0.0,63,0.00,,,0.00,WUHU216HW,2013-07-21 05:08:00,
2013-07-20 22:13:00,66.6,53.7,29.77,North,0,0.0,0.0,63,0.00,,,0.00,WUHU216HW,2013-07-21 05:13:00,
2013-07-20 22:18:00,66.4,53.5,29.77,North,0,0.0,0.0,63,0.00,,,0.00,WUHU216HW,2013-07-21 05:18:00,
2013-07-20 22:23:00,66.2,53.3,29.77,North,0,0.0,0.0,63,0.00,,,0.00,WUHU216HW,2013-07-21 05:23:00,
2013-07-20 22:28:00,66.1,53.1,29.77,North,0,0.0,0.0,63,0.00,,,0.00,WUHU216HW,2013-07-21 05:28:00,
2013-07-20 22:33:00,65.9,52.9,29.77,North,0,0.0,0.0,63,0.00,,,0.00,WUHU216HW,2013-07-21 05:33:00,
2013-07-20 22:38:00,65.9,53.4,29.77,North,0,0.0,0.0,64,0.00,,,0.00,WUHU216HW,2013-07-21 05:38:00,
2013-07-20 22:43:00,65.7,53.2,29.77,North,0,0.0,0.0,64,0.00,,,0.00,WUHU216HW,2013-07-21 05:43:00,
2013-07-20 22:48:00,65.5,53.0,29.77,North,0,0.0,0.0,64,0.00,,,0.00,WUHU216HW,2013-07-21 05:48:00,
2013-07-20 22:54:00,65.3,52.8,29.77,North,0,0.0,0.0,64,0.00,,,0.00,WUHU216HW,2013-07-21 05:54:00,
2013-07-20 22:59:00,65.2,52.7,29.77,North,0,0.0,0.0,64,0.00,,,0.00,WUHU216HW,2013-07-21 05:59:00,
2013-07-20 23:04:00,65.2,52.7,29.77,North,0,0.0,0.0,64,0.00,,,0.00,WUHU216HW,2013-07-21 06:04:00,
2013-07-20 23:09:00,64.8,52.8,29.76,North,0,0.0,0.0,65,0.00,,,0.00,WUHU216HW,2013-07-21 06:09:00,
2013-07-20 23:14:00,64.8,52.8,29.76,North,0,0.0,0.0,65,0.00,,,0.00,WUHU216HW,2013-07-21 06:14:00,
2013-07-20 23:19:00,64.6,52.6,29.76,North,0,0.0,0.0,65,0.00,,,0.00,WUHU216HW,2013-07-21 06:19:00,
2013-07-20 23:24:00,64.4,52.4,29.77,North,0,0.0,0.0,65,0.00,,,0.00,WUHU216HW,2013-07-21 06:24:00,
2013-07-20 23:29:00,64.4,52.4,29.77,North,0,0.0,0.0,65,0.00,,,0.00,WUHU216HW,2013-07-21 06:29:00,
2013-07-20 23:34:00,64.3,52.2,29.77,North,0,0.0,0.0,65,0.00,,,0.00,WUHU216HW,2013-07-21 06:34:00,
2013-07-20 23:39:00,64.1,52.0,29.77,North,0,0.0,0.0,65,0.00,,,0.00,WUHU216HW,2013-07-21 06:39:00,
2013-07-20 23:44:00,63.9,51.8,29.77,North,0,0.0,0.0,65,0.00,,,0.00,WUHU216HW,2013-07-21 06:44:00,
2013-07-20 23:49:00,63.7,52.1,29.77,North,0,0.0,0.0,66,0.00,,,0.00,WUHU216HW,2013-07-21 06:49:00,
2013-07-20 23:54:00,63.5,51.9,29.76,North,0,0.0,0.0,66,0.00,,,0.00,WUHU216HW,2013-07-21 06:54:00,
2013-07-20 23:59:00,63.5,51.9,29.76,North,0,0.0,0.0,66,0.00,,,0.00,WUHU216HW,2013-07-21 06:59:00,